Time;durP1;ratioP1;P1;durP2;ratioP2;P2;SDS_P1;SDS_P2;PMS_P1;PMS_P2;Temp;Humidity;BMP_temperature;BMP_pressure;BME280_temperature;BME280_humidity;BME280_pressure;Samples;Min_cycle;Max_cycle;Signal;HPM_P1;HPM_P2
2022/07/26 00:01:55;;;;;;;37.88;6.18;;;;;;;;;;5030709;28;20207;-68
2022/07/26 00:04:21;;;;;;;34.80;6.45;;;;;;;;;;5031596;28;20034;-67
2022/07/26 00:06:47;;;;;;;29.55;5.22;;;;;;;;;;5032622;28;20034;-68
2022/07/26 00:09:13;;;;;;;34.92;5.93;;;;;;;;;;5032654;28;20033;-67
2022/07/26 00:11:39;;;;;;;34.38;5.95;;;;;;;;;;5032100;28;20475;-69
2022/07/26 00:14:06;;;;;;;27.30;4.80;;;;;;;;;;5033453;28;20079;-68
2022/07/26 00:16:33;;;;;;;39.38;6.32;;;;;;;;;;5033138;28;20041;-68
2022/07/26 00:18:59;;;;;;;26.13;4.90;;;;;;;;;;5032884;28;20036;-68
2022/07/26 00:21:25;;;;;;;27.92;5.13;;;;;;;;;;5033162;28;20021;-68
2022/07/26 00:23:51;;;;;;;24.30;4.57;;;;;;;;;;5031988;28;20025;-69
2022/07/26 00:26:17;;;;;;;33.75;5.40;;;;;;;;;;5032756;28;20040;-66
2022/07/26 00:28:43;;;;;;;31.50;5.55;;;;;;;;;;5032362;28;20037;-68
2022/07/26 00:31:11;;;;;;;37.30;6.05;;;;;;;;;;5032816;28;20517;-68
2022/07/26 00:33:38;;;;;;;28.48;5.03;;;;;;;;;;5039125;28;20134;-67
2022/07/26 00:36:04;;;;;;;26.52;5.18;;;;;;;;;;5052267;28;20094;-67
2022/07/26 00:38:30;;;;;;;29.67;5.53;;;;;;;;;;5052338;28;20132;-67
2022/07/26 00:40:56;;;;;;;26.80;4.97;;;;;;;;;;5053178;28;20053;-67
2022/07/26 00:43:22;;;;;;;26.52;4.55;;;;;;;;;;5052389;28;20052;-66
2022/07/26 00:45:49;;;;;;;30.27;5.43;;;;;;;;;;5052466;28;20064;-67
2022/07/26 00:48:15;;;;;;;30.85;4.63;;;;;;;;;;5052757;28;20112;-67
2022/07/26 00:50:41;;;;;;;25.55;5.30;;;;;;;;;;5051436;28;20032;-67
2022/07/26 00:53:07;;;;;;;20.83;5.15;;;;;;;;;;5052331;28;20032;-67
2022/07/26 00:55:33;;;;;;;18.30;4.18;;;;;;;;;;5052505;28;20501;-68
2022/07/26 00:58:00;;;;;;;17.10;4.60;;;;;;;;;;5051386;28;20171;-67
2022/07/26 01:00:27;;;;;;;20.08;4.13;;;;;;;;;;5053284;28;20079;-68
2022/07/26 01:02:53;;;;;;;19.40;4.43;;;;;;;;;;5052229;28;20049;-67
2022/07/26 01:05:19;;;;;;;23.55;4.65;;;;;;;;;;5052773;28;20131;-67
2022/07/26 01:07:46;;;;;;;20.52;4.03;;;;;;;;;;5052559;28;20025;-67
2022/07/26 01:10:12;;;;;;;14.32;3.63;;;;;;;;;;5051731;28;20103;-66
2022/07/26 01:12:38;;;;;;;12.73;3.97;;;;;;;;;;5053314;28;20053;-67
2022/07/26 01:15:05;;;;;;;14.93;4.57;;;;;;;;;;5052418;28;20044;-66
2022/07/26 01:17:31;;;;;;;13.82;3.83;;;;;;;;;;5052252;28;20048;-67
2022/07/26 01:19:57;;;;;;;19.35;3.60;;;;;;;;;;5051531;28;20139;-67
2022/07/26 01:22:23;;;;;;;8.85;3.80;;;;;;;;;;5051936;28;20021;-67
2022/07/26 01:24:49;;;;;;;15.93;4.05;;;;;;;;;;5051534;28;20033;-67
2022/07/26 01:27:15;;;;;;;13.27;4.10;;;;;;;;;;5051475;28;20032;-67
2022/07/26 01:29:41;;;;;;;17.05;3.90;;;;;;;;;;5051696;28;20039;-68
2022/07/26 01:32:07;;;;;;;13.75;4.20;;;;;;;;;;5050614;28;20221;-67
2022/07/26 01:34:33;;;;;;;12.35;3.63;;;;;;;;;;5051150;28;20025;-67
2022/07/26 01:37:00;;;;;;;8.75;3.55;;;;;;;;;;5052047;28;20024;-68
2022/07/26 01:39:26;;;;;;;8.77;3.35;;;;;;;;;;5051272;28;20049;-68
2022/07/26 01:41:52;;;;;;;12.20;4.00;;;;;;;;;;5051246;28;20055;-68
2022/07/26 01:44:18;;;;;;;9.23;3.67;;;;;;;;;;5051180;28;20026;-67
2022/07/26 01:46:44;;;;;;;11.75;4.03;;;;;;;;;;5050874;28;20040;-67
2022/07/26 01:49:10;;;;;;;8.98;3.60;;;;;;;;;;5050593;28;20066;-67
2022/07/26 01:51:36;;;;;;;12.77;3.40;;;;;;;;;;5050122;28;20162;-67
2022/07/26 01:54:03;;;;;;;16.95;5.10;;;;;;;;;;5050793;28;20470;-68
2022/07/26 01:56:29;;;;;;;10.32;3.92;;;;;;;;;;5050541;28;20043;-67
2022/07/26 01:58:55;;;;;;;10.50;3.65;;;;;;;;;;5050103;28;20272;-67
2022/07/26 02:01:21;;;;;;;7.40;3.42;;;;;;;;;;5049974;28;20040;-68
2022/07/26 02:03:47;;;;;;;7.03;3.60;;;;;;;;;;5050719;28;20033;-68
2022/07/26 02:06:13;;;;;;;12.07;3.70;;;;;;;;;;5050728;28;20025;-68
2022/07/26 02:08:39;;;;;;;10.23;3.00;;;;;;;;;;5050431;28;20037;-68
2022/07/26 02:11:05;;;;;;;9.60;3.00;;;;;;;;;;5049374;28;20052;-66
2022/07/26 02:13:35;;;;;;;8.02;3.10;;;;;;;;;;5050594;28;20033;-67
2022/07/26 02:16:03;;;;;;;8.90;2.85;;;;;;;;;;5050231;28;20112;-67
2022/07/26 02:18:29;;;;;;;17.48;3.45;;;;;;;;;;5050333;28;20032;-67
2022/07/26 02:20:56;;;;;;;13.43;3.58;;;;;;;;;;5050359;28;20029;-67
2022/07/26 02:23:23;;;;;;;8.75;3.33;;;;;;;;;;5049946;28;20053;-67
2022/07/26 02:25:49;;;;;;;11.98;3.47;;;;;;;;;;5050173;28;20033;-67
2022/07/26 02:28:16;;;;;;;13.98;3.58;;;;;;;;;;5052140;28;20032;-68
2022/07/26 02:30:42;;;;;;;13.55;3.33;;;;;;;;;;5053325;28;20025;-68
2022/07/26 02:33:08;;;;;;;17.33;4.13;;;;;;;;;;5053483;28;20359;-68
2022/07/26 02:35:35;;;;;;;9.63;3.75;;;;;;;;;;5053367;28;20036;-67
2022/07/26 02:38:05;;;;;;;15.40;3.83;;;;;;;;;;5053160;28;20029;-68
2022/07/26 02:40:32;;;;;;;13.82;3.10;;;;;;;;;;5053106;28;20067;-68
2022/07/26 02:42:58;;;;;;;11.80;3.50;;;;;;;;;;5053482;28;20482;-68
2022/07/26 02:45:25;;;;;;;11.65;3.60;;;;;;;;;;5052738;28;20459;-67
2022/07/26 02:47:52;;;;;;;10.00;3.72;;;;;;;;;;5052934;28;20032;-67
2022/07/26 02:50:19;;;;;;;8.32;3.63;;;;;;;;;;5052503;28;20029;-67
2022/07/26 02:52:48;;;;;;;13.48;4.15;;;;;;;;;;5052853;28;20025;-68
2022/07/26 02:55:15;;;;;;;11.93;3.70;;;;;;;;;;5052733;28;20025;-68
2022/07/26 02:57:41;;;;;;;11.50;3.95;;;;;;;;;;5052508;28;20033;-68
2022/07/26 03:00:08;;;;;;;9.88;4.43;;;;;;;;;;5052333;28;20032;-67
2022/07/26 03:02:34;;;;;;;8.25;3.90;;;;;;;;;;5034600;28;20041;-68
2022/07/26 03:05:01;;;;;;;18.42;4.97;;;;;;;;;;5052340;28;20517;-69
2022/07/26 03:07:27;;;;;;;12.15;4.60;;;;;;;;;;5052502;28;20025;-68
2022/07/26 03:09:53;;;;;;;12.25;4.85;;;;;;;;;;5052212;28;20032;-67
2022/07/26 03:12:19;;;;;;;13.90;4.03;;;;;;;;;;5052151;28;20128;-67
2022/07/26 03:14:45;;;;;;;14.77;4.32;;;;;;;;;;5051279;28;20482;-67
2022/07/26 03:17:11;;;;;;;13.95;4.60;;;;;;;;;;5052234;28;20033;-68
2022/07/26 03:19:37;;;;;;;16.55;4.60;;;;;;;;;;5052033;28;20045;-67
2022/07/26 03:22:03;;;;;;;14.57;4.60;;;;;;;;;;5052536;28;20123;-67
2022/07/26 03:24:29;;;;;;;11.50;4.28;;;;;;;;;;5052280;28;20037;-67
2022/07/26 03:26:55;;;;;;;9.50;4.13;;;;;;;;;;5052098;28;20482;-67
2022/07/26 03:29:21;;;;;;;19.90;4.95;;;;;;;;;;5051668;28;20495;-66
2022/07/26 03:31:47;;;;;;;18.85;5.32;;;;;;;;;;5052129;28;20474;-68
2022/07/26 03:34:13;;;;;;;23.00;5.90;;;;;;;;;;5052027;28;20120;-67
2022/07/26 03:36:42;;;;;;;15.50;5.20;;;;;;;;;;5051508;28;20057;-67
2022/07/26 03:39:08;;;;;;;17.42;5.63;;;;;;;;;;5051784;28;20033;-68
2022/07/26 03:41:34;;;;;;;17.92;5.13;;;;;;;;;;5052001;28;20138;-68
2022/07/26 03:44:00;;;;;;;20.10;5.43;;;;;;;;;;5052395;28;20025;-68
2022/07/26 03:46:27;;;;;;;20.70;5.43;;;;;;;;;;5052515;28;20037;-67
2022/07/26 03:48:53;;;;;;;24.17;6.40;;;;;;;;;;5052160;28;20483;-68
2022/07/26 03:51:19;;;;;;;17.83;5.85;;;;;;;;;;5051911;28;20040;-67
2022/07/26 03:53:45;;;;;;;17.05;6.40;;;;;;;;;;5052078;28;20380;-68
2022/07/26 03:58:56;;;;;;;16.77;5.53;;;;;;;;;;5052139;28;20044;-69
2022/07/26 04:01:22;;;;;;;19.98;6.00;;;;;;;;;;5051472;28;20422;-68
2022/07/26 04:03:48;;;;;;;20.38;6.03;;;;;;;;;;5052103;28;20029;-69
2022/07/26 04:06:15;;;;;;;15.90;5.57;;;;;;;;;;5051952;28;20135;-68
2022/07/26 04:08:41;;;;;;;22.63;6.18;;;;;;;;;;5051781;28;20108;-68
2022/07/26 04:11:07;;;;;;;22.17;5.93;;;;;;;;;;5051843;28;20056;-69
2022/07/26 04:13:34;;;;;;;12.98;5.47;;;;;;;;;;5051571;28;20037;-68
2022/07/26 04:16:00;;;;;;;16.38;5.88;;;;;;;;;;5051669;28;20048;-68
2022/07/26 04:18:26;;;;;;;21.30;5.88;;;;;;;;;;5050301;28;20048;-68
2022/07/26 04:20:52;;;;;;;23.10;5.65;;;;;;;;;;5051213;28;20548;-68
2022/07/26 04:23:18;;;;;;;15.23;5.85;;;;;;;;;;5051385;28;20479;-68
2022/07/26 04:25:44;;;;;;;18.30;6.07;;;;;;;;;;5052045;28;20117;-67
2022/07/26 04:28:11;;;;;;;19.50;5.68;;;;;;;;;;5050400;28;20021;-68
2022/07/26 04:30:37;;;;;;;16.25;5.05;;;;;;;;;;5051306;28;20086;-68
2022/07/26 04:33:04;;;;;;;12.23;5.03;;;;;;;;;;5051282;28;20040;-67
2022/07/26 04:35:31;;;;;;;31.13;5.72;;;;;;;;;;5050237;28;20478;-67
2022/07/26 04:37:57;;;;;;;11.43;4.78;;;;;;;;;;5051383;28;20479;-68
2022/07/26 04:40:24;;;;;;;13.45;4.55;;;;;;;;;;5051540;28;20111;-68
2022/07/26 04:42:51;;;;;;;15.13;4.43;;;;;;;;;;5052010;28;20032;-68
2022/07/26 04:45:17;;;;;;;14.68;4.88;;;;;;;;;;5052122;28;20044;-68
2022/07/26 04:47:43;;;;;;;13.15;3.80;;;;;;;;;;5051522;28;20555;-68
2022/07/26 04:50:12;;;;;;;13.88;4.22;;;;;;;;;;5049674;28;20693;-68
2022/07/26 04:52:39;;;;;;;17.42;4.70;;;;;;;;;;5050550;28;20122;-68
2022/07/26 04:55:09;;;;;;;14.07;4.55;;;;;;;;;;5051912;28;20037;-69
2022/07/26 04:57:35;;;;;;;13.63;4.70;;;;;;;;;;5051255;28;20036;-68
2022/07/26 05:00:01;;;;;;;13.02;4.70;;;;;;;;;;5051693;28;20029;-69
2022/07/26 05:02:27;;;;;;;16.80;4.78;;;;;;;;;;5051914;28;20517;-66
2022/07/26 05:04:53;;;;;;;12.43;5.13;;;;;;;;;;5051589;28;20021;-68
2022/07/26 05:07:19;;;;;;;13.05;6.05;;;;;;;;;;5051445;28;20033;-66
2022/07/26 05:09:45;;;;;;;11.57;5.40;;;;;;;;;;5051515;28;20027;-67
2022/07/26 05:12:11;;;;;;;18.08;6.47;;;;;;;;;;5051166;28;20047;-66
2022/07/26 05:14:38;;;;;;;18.58;6.35;;;;;;;;;;5051327;28;20067;-66
2022/07/26 05:17:04;;;;;;;19.27;6.90;;;;;;;;;;5051578;28;20041;-67
2022/07/26 05:19:30;;;;;;;16.27;6.07;;;;;;;;;;5050516;28;20021;-66
2022/07/26 05:21:56;;;;;;;8.07;4.45;;;;;;;;;;5050488;28;20079;-66
2022/07/26 05:24:22;;;;;;;11.40;4.63;;;;;;;;;;5050637;28;20063;-66
2022/07/26 05:26:48;;;;;;;12.75;4.75;;;;;;;;;;5051210;28;20467;-67
2022/07/26 05:29:14;;;;;;;14.73;5.20;;;;;;;;;;5050961;28;20025;-67
2022/07/26 05:31:40;;;;;;;14.65;4.60;;;;;;;;;;5050787;28;20031;-67
2022/07/26 05:34:06;;;;;;;11.88;4.43;;;;;;;;;;5050088;28;20043;-67
2022/07/26 05:36:33;;;;;;;13.10;5.07;;;;;;;;;;5050494;28;20041;-67
2022/07/26 05:38:59;;;;;;;14.18;5.65;;;;;;;;;;5049306;28;20037;-66
2022/07/26 05:41:25;;;;;;;11.23;4.30;;;;;;;;;;5050137;28;20021;-68
2022/07/26 05:43:51;;;;;;;15.40;4.60;;;;;;;;;;5049678;28;20034;-66
2022/07/26 05:46:18;;;;;;;16.00;4.32;;;;;;;;;;5050110;28;20120;-66
2022/07/26 05:48:44;;;;;;;13.20;3.70;;;;;;;;;;5050008;28;20087;-67
2022/07/26 05:51:10;;;;;;;16.52;3.70;;;;;;;;;;5050347;28;20026;-66
2022/07/26 05:53:37;;;;;;;12.80;2.70;;;;;;;;;;5049640;28;20057;-67
2022/07/26 05:56:03;;;;;;;17.33;3.83;;;;;;;;;;5049992;28;20052;-67
2022/07/26 05:58:29;;;;;;;17.90;3.55;;;;;;;;;;5049938;28;20517;-67
2022/07/26 06:00:55;;;;;;;19.27;3.58;;;;;;;;;;5052009;28;20037;-67
2022/07/26 06:03:21;;;;;;;17.05;3.47;;;;;;;;;;5053606;28;20084;-68
2022/07/26 06:05:48;;;;;;;11.48;3.25;;;;;;;;;;5053823;28;20040;-67
2022/07/26 06:08:14;;;;;;;24.77;3.35;;;;;;;;;;5052526;28;20631;-67
2022/07/26 06:10:40;;;;;;;14.48;2.83;;;;;;;;;;5053663;28;20025;-67
2022/07/26 06:13:06;;;;;;;15.93;2.67;;;;;;;;;;5053579;28;20324;-66
2022/07/26 06:15:32;;;;;;;12.77;2.63;;;;;;;;;;5052417;28;20120;-66
2022/07/26 06:17:58;;;;;;;16.90;3.15;;;;;;;;;;5053600;28;20061;-67
2022/07/26 06:20:24;;;;;;;14.18;2.35;;;;;;;;;;5053628;28;20029;-67
2022/07/26 06:22:51;;;;;;;15.05;2.88;;;;;;;;;;5054114;28;20041;-66
2022/07/26 06:25:17;;;;;;;15.90;2.83;;;;;;;;;;5053899;28;20025;-67
2022/07/26 06:27:43;;;;;;;12.55;2.80;;;;;;;;;;5054135;28;20021;-67
2022/07/26 06:30:10;;;;;;;13.63;2.53;;;;;;;;;;5054033;28;20029;-66
2022/07/26 06:32:36;;;;;;;11.75;2.22;;;;;;;;;;5053492;28;20497;-66
2022/07/26 06:35:02;;;;;;;10.60;2.45;;;;;;;;;;5053603;28;20033;-66
2022/07/26 06:37:28;;;;;;;13.63;2.88;;;;;;;;;;5054041;28;20021;-67
2022/07/26 06:39:54;;;;;;;13.93;2.45;;;;;;;;;;5053896;28;20116;-67
2022/07/26 06:42:20;;;;;;;14.40;2.40;;;;;;;;;;5036024;28;20052;-67
2022/07/26 06:44:46;;;;;;;13.07;2.15;;;;;;;;;;5052189;28;20029;-67
2022/07/26 06:47:12;;;;;;;9.57;1.70;;;;;;;;;;5053380;28;20017;-67
2022/07/26 06:49:38;;;;;;;6.13;1.70;;;;;;;;;;5053085;28;20056;-66
2022/07/26 06:52:04;;;;;;;9.27;1.95;;;;;;;;;;5053169;28;20094;-66
2022/07/26 06:54:30;;;;;;;6.20;1.40;;;;;;;;;;5051990;28;20037;-66
2022/07/26 06:56:56;;;;;;;7.88;1.60;;;;;;;;;;5053200;28;20040;-65
2022/07/26 06:59:22;;;;;;;16.80;1.48;;;;;;;;;;5046065;28;20025;-66
2022/07/26 07:01:48;;;;;;;8.73;1.20;;;;;;;;;;5032685;28;20037;-66
2022/07/26 07:04:14;;;;;;;10.98;1.38;;;;;;;;;;5032811;28;20613;-66
2022/07/26 07:06:40;;;;;;;7.00;1.20;;;;;;;;;;5033081;28;20029;-65
2022/07/26 07:09:07;;;;;;;4.75;1.20;;;;;;;;;;5032725;28;20029;-66
2022/07/26 07:11:33;;;;;;;9.25;1.63;;;;;;;;;;5038979;28;20040;-65
2022/07/26 07:14:01;;;;;;;9.02;1.98;;;;;;;;;;5052366;28;20035;-65
2022/07/26 07:16:27;;;;;;;9.27;1.70;;;;;;;;;;5053124;28;20036;-66
2022/07/26 07:18:54;;;;;;;7.97;1.58;;;;;;;;;;5051693;28;20041;-67
2022/07/26 07:21:20;;;;;;;11.88;1.60;;;;;;;;;;5051608;28;20025;-67
2022/07/26 07:23:46;;;;;;;11.98;1.83;;;;;;;;;;5052627;28;20033;-66
2022/07/26 07:26:12;;;;;;;10.05;1.67;;;;;;;;;;5052554;28;20027;-65
2022/07/26 07:28:38;;;;;;;10.20;1.83;;;;;;;;;;5052139;28;20029;-66
2022/07/26 07:31:04;;;;;;;10.73;1.70;;;;;;;;;;5053031;28;20108;-67
2022/07/26 07:33:31;;;;;;;5.03;1.02;;;;;;;;;;5052788;28;20403;-66
2022/07/26 07:35:57;;;;;;;10.30;1.38;;;;;;;;;;5053015;28;20094;-66
2022/07/26 07:38:23;;;;;;;7.05;1.20;;;;;;;;;;5052574;28;20029;-64
2022/07/26 07:40:49;;;;;;;4.97;1.25;;;;;;;;;;5052486;28;20487;-66
2022/07/26 07:43:15;;;;;;;6.97;1.38;;;;;;;;;;5052680;28;20037;-67
2022/07/26 07:45:41;;;;;;;7.50;1.50;;;;;;;;;;5052603;28;20526;-66
2022/07/26 07:48:07;;;;;;;8.02;1.52;;;;;;;;;;5045538;28;20399;-65
2022/07/26 07:50:33;;;;;;;6.43;1.30;;;;;;;;;;5032723;28;20026;-65
2022/07/26 07:53:00;;;;;;;8.45;1.10;;;;;;;;;;5032640;28;20036;-66
2022/07/26 07:55:26;;;;;;;11.63;1.55;;;;;;;;;;5032590;28;20029;-67
2022/07/26 07:57:52;;;;;;;11.90;1.30;;;;;;;;;;5032565;28;20079;-66
2022/07/26 08:00:18;;;;;;;6.30;1.27;;;;;;;;;;5032505;28;20048;-68
2022/07/26 08:02:45;;;;;;;8.45;0.93;;;;;;;;;;5032245;28;20136;-67
2022/07/26 08:05:12;;;;;;;5.90;0.80;;;;;;;;;;5031922;28;20491;-66
2022/07/26 08:07:38;;;;;;;7.00;1.00;;;;;;;;;;5032167;28;20040;-68
2022/07/26 08:10:04;;;;;;;7.40;0.90;;;;;;;;;;5032064;28;20029;-68
2022/07/26 08:12:30;;;;;;;6.93;1.52;;;;;;;;;;5031874;28;20037;-68
2022/07/26 08:14:56;;;;;;;6.82;0.98;;;;;;;;;;5031515;28;20132;-67
2022/07/26 08:17:22;;;;;;;5.32;0.98;;;;;;;;;;5031699;28;20026;-67
2022/07/26 08:19:48;;;;;;;4.80;1.15;;;;;;;;;;5031456;28;20026;-67
2022/07/26 08:22:14;;;;;;;8.10;1.20;;;;;;;;;;5031454;28;20062;-66
2022/07/26 08:24:43;;;;;;;4.03;1.17;;;;;;;;;;5029846;28;20033;-66
2022/07/26 08:27:09;;;;;;;9.90;2.20;;;;;;;;;;5031120;28;20033;-68
2022/07/26 08:29:35;;;;;;;6.75;1.10;;;;;;;;;;5031026;28;20040;-67
2022/07/26 08:32:01;;;;;;;6.13;0.98;;;;;;;;;;5030124;28;20022;-67
2022/07/26 08:34:27;;;;;;;9.00;1.08;;;;;;;;;;5031111;28;20442;-67
2022/07/26 08:36:53;;;;;;;5.75;1.05;;;;;;;;;;5031390;28;20119;-68
2022/07/26 08:39:19;;;;;;;8.98;1.08;;;;;;;;;;5029657;28;20053;-68
2022/07/26 08:41:45;;;;;;;4.55;0.82;;;;;;;;;;5031222;28;20029;-67
2022/07/26 08:44:18;;;;;;;7.15;1.60;;;;;;;;;;5128293;27;20433;-68
2022/07/26 08:46:44;;;;;;;10.18;1.30;;;;;;;;;;5128462;28;20092;-69
2022/07/26 08:49:11;;;;;;;7.43;1.15;;;;;;;;;;5128485;27;20035;-69
2022/07/26 08:51:42;;;;;;;7.78;1.88;;;;;;;;;;5128124;28;20026;-69
2022/07/26 08:54:09;;;;;;;5.53;1.17;;;;;;;;;;5127506;28;20036;-68
2022/07/26 08:56:37;;;;;;;5.93;0.90;;;;;;;;;;5128592;28;20047;-68
2022/07/26 08:59:21;;;;;;;5.95;1.10;;;;;;;;;;5128592;28;20027;-68
2022/07/26 09:01:50;;;;;;;8.30;1.25;;;;;;;;;;5128753;28;20563;-69
2022/07/26 09:04:20;;;;;;;7.82;1.67;;;;;;;;;;5128067;28;20039;-69
2022/07/26 09:07:00;;;;;;;6.43;1.13;;;;;;;;;;5128559;28;20102;-68
2022/07/26 09:09:26;;;;;;;6.72;0.90;;;;;;;;;;5128726;28;20031;-68
2022/07/26 09:11:54;;;;;;;7.30;1.20;;;;;;;;;;5128118;28;20488;-67
2022/07/26 09:14:20;;;;;;;9.00;1.13;;;;;;;;;;5127909;28;20060;-67
2022/07/26 09:16:56;;;;;;;7.65;1.10;;;;;;;;;;5128383;28;20019;-68
2022/07/26 09:19:23;;;;;;;6.75;0.93;;;;;;;;;;5128074;28;20020;-68
2022/07/26 09:21:49;;;;;;;9.73;1.35;;;;;;;;;;5128551;28;20031;-69
2022/07/26 09:24:32;;;;;;;3.72;0.80;;;;;;;;;;5127898;28;20107;-67
2022/07/26 09:26:59;;;;;;;5.80;1.05;;;;;;;;;;5128100;28;20058;-68
2022/07/26 09:29:27;;;;;;;5.65;0.95;;;;;;;;;;5127965;28;20023;-68
2022/07/26 09:32:07;;;;;;;5.20;1.08;;;;;;;;;;5127773;28;20050;-68
2022/07/26 09:34:33;;;;;;;3.13;0.82;;;;;;;;;;5127896;28;20027;-67
2022/07/26 09:36:59;;;;;;;7.20;1.02;;;;;;;;;;5127757;28;20046;-68
2022/07/26 09:39:26;;;;;;;7.05;0.93;;;;;;;;;;5128562;28;20024;-69
2022/07/26 09:41:53;;;;;;;4.70;0.70;;;;;;;;;;5127503;28;20031;-69
2022/07/26 09:44:23;;;;;;;8.50;0.98;;;;;;;;;;5127037;28;20034;-69
2022/07/26 09:46:55;;;;;;;4.03;0.90;;;;;;;;;;5127723;28;20019;-68
2022/07/26 09:49:21;;;;;;;2.58;0.88;;;;;;;;;;5127937;27;20110;-68
2022/07/26 09:51:48;;;;;;;3.95;0.90;;;;;;;;;;5128368;28;20035;-68
2022/07/26 09:54:18;;;;;;;10.60;1.85;;;;;;;;;;5122333;28;20023;-68
2022/07/26 09:56:46;;;;;;;5.03;0.87;;;;;;;;;;5095963;28;20422;-68
2022/07/26 09:59:16;;;;;;;5.72;0.90;;;;;;;;;;5114521;28;20755;-68
2022/07/26 10:01:43;;;;;;;6.63;0.88;;;;;;;;;;5114759;28;20053;-68
2022/07/26 10:04:09;;;;;;;7.57;1.35;;;;;;;;;;5114027;28;20397;-68
2022/07/26 10:06:35;;;;;;;3.95;1.02;;;;;;;;;;5114004;28;20048;-68
2022/07/26 10:09:01;;;;;;;5.03;0.95;;;;;;;;;;5114378;28;20035;-68
2022/07/26 10:11:35;;;;;;;5.35;1.23;;;;;;;;;;5114733;28;20131;-66
2022/07/26 10:14:21;;;;;;;8.85;1.50;;;;;;;;;;5114055;28;20020;-68
2022/07/26 10:16:47;;;;;;;6.88;1.27;;;;;;;;;;5114670;28;20126;-67
2022/07/26 10:19:33;;;;;;;10.52;1.40;;;;;;;;;;5115680;28;20031;-66
2022/07/26 10:22:17;;;;;;;6.43;1.33;;;;;;;;;;5116343;28;20508;-68
2022/07/26 10:24:43;;;;;;;9.18;1.80;;;;;;;;;;5116660;28;20069;-70
2022/07/26 10:27:29;;;;;;;9.02;1.67;;;;;;;;;;5114546;28;20034;-68
2022/07/26 10:30:15;;;;;;;8.68;1.40;;;;;;;;;;5114451;28;20081;-68
2022/07/26 10:32:44;;;;;;;8.18;1.65;;;;;;;;;;5096062;28;20536;-67
2022/07/26 10:35:28;;;;;;;7.93;1.65;;;;;;;;;;5113989;28;20032;-67
2022/07/26 10:38:02;;;;;;;12.80;1.75;;;;;;;;;;5113498;28;20123;-67
2022/07/26 10:40:29;;;;;;;6.50;1.50;;;;;;;;;;5094878;28;20027;-67
2022/07/26 10:43:14;;;;;;;5.85;1.05;;;;;;;;;;5094578;28;20108;-67
2022/07/26 10:45:40;;;;;;;9.23;1.15;;;;;;;;;;5112424;28;20562;-68
2022/07/26 10:48:11;;;;;;;7.70;1.08;;;;;;;;;;5119589;27;20388;-68
2022/07/26 10:50:37;;;;;;;7.53;1.05;;;;;;;;;;5133229;27;20015;-68
2022/07/26 10:53:04;;;;;;;8.40;1.20;;;;;;;;;;5132781;27;20536;-68
2022/07/26 10:55:30;;;;;;;8.43;1.55;;;;;;;;;;5132646;27;20043;-68
2022/07/26 10:57:56;;;;;;;4.95;1.00;;;;;;;;;;5114614;27;20404;-68
2022/07/26 11:00:25;;;;;;;6.15;1.20;;;;;;;;;;5132912;27;20107;-68
2022/07/26 11:02:56;;;;;;;5.35;1.00;;;;;;;;;;5132577;27;20537;-68
2022/07/26 11:05:27;;;;;;;5.88;1.15;;;;;;;;;;5131396;27;20015;-67
2022/07/26 11:08:06;;;;;;;4.60;0.80;;;;;;;;;;5118296;27;20024;-68
2022/07/26 11:10:34;;;;;;;5.10;1.40;;;;;;;;;;5091406;28;20020;-68
2022/07/26 11:13:01;;;;;;;2.53;0.75;;;;;;;;;;5091585;28;20505;-69
2022/07/26 11:15:27;;;;;;;6.00;0.88;;;;;;;;;;5091047;28;20039;-68
2022/07/26 11:18:05;;;;;;;2.80;0.77;;;;;;;;;;5091347;28;20074;-68
2022/07/26 11:20:31;;;;;;;4.90;0.90;;;;;;;;;;5091391;28;20012;-69
2022/07/26 11:22:57;;;;;;;6.72;1.33;;;;;;;;;;5091311;28;20034;-68
2022/07/26 11:25:23;;;;;;;15.52;2.22;;;;;;;;;;5106364;28;20035;-68
2022/07/26 11:28:03;;;;;;;6.45;1.25;;;;;;;;;;5073062;28;20036;-67
2022/07/26 11:30:29;;;;;;;4.45;1.20;;;;;;;;;;5091085;28;20077;-67
2022/07/26 11:32:59;;;;;;;10.15;1.45;;;;;;;;;;5091269;28;20032;-68
2022/07/26 11:35:26;;;;;;;6.88;1.35;;;;;;;;;;5090896;28;20107;-68
2022/07/26 11:38:00;;;;;;;7.35;1.55;;;;;;;;;;5090747;28;20481;-67
2022/07/26 11:40:45;;;;;;;8.85;1.60;;;;;;;;;;5090826;28;20031;-68
2022/07/26 11:43:11;;;;;;;11.18;2.45;;;;;;;;;;5111619;28;20075;-69
2022/07/26 11:45:38;;;;;;;10.20;1.70;;;;;;;;;;5111399;28;20028;-68
2022/07/26 11:48:04;;;;;;;9.48;1.77;;;;;;;;;;5118266;27;20522;-68
2022/07/26 11:50:30;;;;;;;8.38;2.20;;;;;;;;;;5132008;27;20028;-69
2022/07/26 11:52:57;;;;;;;7.93;2.10;;;;;;;;;;5113937;27;20118;-69
2022/07/26 11:55:29;;;;;;;10.93;1.70;;;;;;;;;;5132633;27;20030;-68
2022/07/26 11:57:55;;;;;;;11.27;2.45;;;;;;;;;;5133161;27;20392;-67
2022/07/26 12:00:22;;;;;;;10.63;2.08;;;;;;;;;;5114016;27;20031;-68
2022/07/26 12:02:48;;;;;;;9.27;2.08;;;;;;;;;;5133168;27;20039;-67
2022/07/26 12:05:21;;;;;;;9.38;2.05;;;;;;;;;;5131968;27;20027;-69
2022/07/26 12:07:54;;;;;;;12.15;2.22;;;;;;;;;;5132800;27;20042;-67
2022/07/26 12:10:21;;;;;;;12.35;2.30;;;;;;;;;;5133363;27;20038;-69
2022/07/26 12:12:47;;;;;;;14.65;2.53;;;;;;;;;;5132885;27;20027;-68
2022/07/26 12:15:14;;;;;;;10.38;2.00;;;;;;;;;;5132822;27;20037;-68
2022/07/26 12:17:57;;;;;;;12.73;2.80;;;;;;;;;;5098796;27;20368;-67
2022/07/26 12:20:26;;;;;;;9.73;1.80;;;;;;;;;;5134392;27;20035;-68
2022/07/26 12:22:57;;;;;;;13.97;2.37;;;;;;;;;;5117004;27;20472;-68
2022/07/26 12:25:27;;;;;;;10.73;1.65;;;;;;;;;;5114654;27;20019;-69
2022/07/26 12:27:53;;;;;;;14.30;2.28;;;;;;;;;;5132221;27;20098;-68
2022/07/26 12:30:19;;;;;;;9.23;1.92;;;;;;;;;;5134162;27;20086;-68
2022/07/26 12:32:47;;;;;;;7.55;1.40;;;;;;;;;;5133453;27;20028;-67
2022/07/26 12:35:24;;;;;;;10.50;2.08;;;;;;;;;;5133402;27;20147;-68
2022/07/26 12:37:52;;;;;;;10.55;1.98;;;;;;;;;;5126465;27;20039;-69
2022/07/26 12:40:18;;;;;;;7.80;1.75;;;;;;;;;;5092984;28;20039;-69
2022/07/26 12:42:55;;;;;;;10.00;2.28;;;;;;;;;;5092974;28;20040;-68
2022/07/26 12:45:21;;;;;;;16.95;2.10;;;;;;;;;;5093486;28;20024;-68
2022/07/26 12:47:49;;;;;;;12.13;1.90;;;;;;;;;;5095784;28;20388;-67
2022/07/26 12:50:22;;;;;;;11.98;2.65;;;;;;;;;;5112534;28;20016;-68
2022/07/26 12:52:58;;;;;;;14.32;2.67;;;;;;;;;;5112671;28;20031;-67
2022/07/26 12:55:24;;;;;;;11.93;2.42;;;;;;;;;;5111777;28;20114;-68
2022/07/26 12:57:51;;;;;;;13.70;2.38;;;;;;;;;;5109713;28;20047;-68
2022/07/26 13:00:20;;;;;;;10.70;2.15;;;;;;;;;;5112130;28;20050;-68
2022/07/26 13:02:46;;;;;;;13.85;2.35;;;;;;;;;;5112518;28;20031;-67
2022/07/26 13:05:13;;;;;;;10.35;2.35;;;;;;;;;;5110742;28;20034;-68
2022/07/26 13:07:39;;;;;;;14.85;2.42;;;;;;;;;;5091074;28;20016;-68
2022/07/26 13:10:06;;;;;;;10.23;2.30;;;;;;;;;;5091126;28;20031;-67
2022/07/26 13:12:36;;;;;;;12.95;2.55;;;;;;;;;;5092009;28;20035;-66
2022/07/26 13:15:03;;;;;;;10.35;1.92;;;;;;;;;;5091801;28;20060;-68
2022/07/26 13:17:29;;;;;;;10.43;2.00;;;;;;;;;;5091872;28;20012;-68
2022/07/26 13:19:55;;;;;;;10.52;2.42;;;;;;;;;;5072474;28;20541;-66
2022/07/26 13:22:21;;;;;;;14.25;2.13;;;;;;;;;;5071740;28;20123;-68
2022/07/26 13:24:47;;;;;;;8.75;2.70;;;;;;;;;;5091267;28;20032;-67
2022/07/26 13:27:13;;;;;;;12.98;2.05;;;;;;;;;;5089870;28;20032;-68
2022/07/26 13:29:39;;;;;;;12.13;2.00;;;;;;;;;;5090743;28;20087;-67
2022/07/26 13:32:05;;;;;;;8.32;1.65;;;;;;;;;;5108930;28;20489;-68
2022/07/26 13:34:32;;;;;;;8.95;2.03;;;;;;;;;;5093048;28;20020;-69
2022/07/26 13:36:58;;;;;;;9.70;2.03;;;;;;;;;;5093338;28;20023;-67
2022/07/26 13:39:25;;;;;;;9.30;1.90;;;;;;;;;;5108971;28;20564;-67
2022/07/26 13:41:51;;;;;;;10.30;1.88;;;;;;;;;;5093319;28;20512;-67
2022/07/26 13:44:17;;;;;;;13.88;1.98;;;;;;;;;;5093202;28;20051;-67
2022/07/26 13:46:43;;;;;;;10.88;2.10;;;;;;;;;;5094939;28;20539;-68
2022/07/26 13:49:09;;;;;;;7.18;1.50;;;;;;;;;;5095474;28;20059;-67
2022/07/26 13:54:22;;;;;;;12.73;1.63;;;;;;;;;;5110741;28;20038;-67
2022/07/26 13:56:48;;;;;;;12.70;1.70;;;;;;;;;;5113124;28;20511;-68
2022/07/26 13:59:14;;;;;;;13.70;1.60;;;;;;;;;;5113299;28;20030;-68
2022/07/26 14:01:41;;;;;;;10.13;1.73;;;;;;;;;;5112987;28;20085;-68
2022/07/26 14:04:08;;;;;;;7.75;1.80;;;;;;;;;;5094898;28;20149;-67
2022/07/26 14:06:34;;;;;;;7.07;1.33;;;;;;;;;;5112730;28;20027;-68
2022/07/26 14:09:00;;;;;;;6.00;1.42;;;;;;;;;;5112823;28;20469;-68
2022/07/26 14:11:27;;;;;;;9.27;1.60;;;;;;;;;;5112979;28;20020;-67
2022/07/26 14:13:53;;;;;;;8.10;1.70;;;;;;;;;;5113102;28;20027;-68
2022/07/26 14:16:19;;;;;;;12.25;1.50;;;;;;;;;;5094857;28;20085;-68
2022/07/26 14:18:45;;;;;;;8.15;1.48;;;;;;;;;;5113313;28;20107;-68
2022/07/26 14:21:11;;;;;;;5.43;1.85;;;;;;;;;;5113703;28;20035;-67
2022/07/26 14:23:37;;;;;;;6.13;1.30;;;;;;;;;;5112713;28;20095;-69
2022/07/26 14:26:03;;;;;;;7.05;1.42;;;;;;;;;;5113099;28;20024;-68
2022/07/26 14:28:29;;;;;;;7.00;1.50;;;;;;;;;;5113150;28;20020;-68
2022/07/26 14:30:55;;;;;;;9.15;1.67;;;;;;;;;;5095520;28;20027;-68
2022/07/26 14:33:21;;;;;;;6.13;1.38;;;;;;;;;;5112747;28;20024;-67
2022/07/26 14:35:47;;;;;;;4.88;1.23;;;;;;;;;;5112834;28;20027;-67
2022/07/26 14:38:13;;;;;;;7.28;1.58;;;;;;;;;;5112722;28;20028;-68
2022/07/26 14:40:40;;;;;;;7.55;1.73;;;;;;;;;;5094210;28;20100;-67
2022/07/26 14:43:07;;;;;;;8.68;1.90;;;;;;;;;;5112237;28;20069;-68